Time;durP1;ratioP1;P1;durP2;ratioP2;P2;SDS_P1;SDS_P2;PMS_P1;PMS_P2;Temp;Humidity;BMP_temperature;BMP_pressure;BME280_temperature;BME280_humidity;BME280_pressure;Samples;Min_cycle;Max_cycle;Signal;HPM_P1;HPM_P2
2021/12/14 00:01:42;;;;;;;23.90;12.50;;;;;;;0.20;81.96;101871.20;105654;1276;60397;-79
2021/12/14 00:04:28;;;;;;;22.30;11.80;;;;;;;0.17;80.91;101869.03;105621;1279;60080;-83
2021/12/14 00:06:57;;;;;;;24.60;13.50;;;;;;;0.26;82.06;101865.33;105603;1278;74538;-82
2021/12/14 00:09:30;;;;;;;23.60;12.30;;;;;;;0.23;82.05;101872.04;105490;1279;73768;-83
2021/12/14 00:15:04;;;;;;;22.30;11.90;;;;;;;0.10;81.17;101878.34;105503;1279;71850;-83
2021/12/14 00:17:51;;;;;;;20.60;11.60;;;;;;;0.15;82.57;101874.01;105472;1279;59726;-81
2021/12/14 00:20:59;;;;;;;24.40;13.10;;;;;;;0.17;81.60;101873.83;105489;1279;61032;-82
2021/12/14 00:26:19;;;;;;;23.90;13.30;;;;;;;0.14;81.76;101885.50;105500;1278;70870;-82
2021/12/14 00:28:49;;;;;;;22.80;12.10;;;;;;;0.13;82.68;101882.25;105412;1278;68276;-84
2021/12/14 00:31:19;;;;;;;22.40;12.80;;;;;;;0.03;80.66;101882.53;105537;1278;73187;-84
2021/12/14 00:33:53;;;;;;;20.60;11.60;;;;;;;0.05;81.31;101887.48;105497;1281;60928;-82
2021/12/14 00:36:22;;;;;;;22.80;12.90;;;;;;;0.15;82.49;101893.70;105352;1278;59769;-83
2021/12/14 00:38:56;;;;;;;23.40;12.00;;;;;;;0.18;82.90;101892.14;105587;1276;74806;-83
2021/12/14 00:41:31;;;;;;;29.60;14.60;;;;;;;0.12;82.24;101896.48;105423;1278;70782;-84
2021/12/14 00:44:00;;;;;;;19.80;11.20;;;;;;;0.05;81.14;101902.38;105554;1281;68207;-82
2021/12/14 00:46:29;;;;;;;21.10;11.80;;;;;;;0.10;81.94;101904.04;105605;1278;71553;-82
2021/12/14 00:48:58;;;;;;;23.10;13.50;;;;;;;0.09;82.04;101909.02;105549;1277;60671;-80
2021/12/14 00:51:28;;;;;;;28.30;13.70;;;;;;;0.06;81.85;101908.71;105528;1278;61748;-81
2021/12/14 00:53:59;;;;;;;25.60;14.80;;;;;;;0.11;82.46;101911.73;105310;1281;75025;-80
2021/12/14 00:56:28;;;;;;;23.60;12.70;;;;;;;0.06;80.32;101912.48;105382;1279;70902;-81
2021/12/14 00:59:04;;;;;;;24.90;13.10;;;;;;;0.10;81.66;101912.44;105644;1275;70245;-79
2021/12/14 01:01:42;;;;;;;26.90;13.60;;;;;;;0.16;82.57;101911.36;105431;1278;71789;-80
2021/12/14 01:04:15;;;;;;;16.70;8.30;;;;;;;0.15;82.37;101920.44;105573;1278;61484;-79
2021/12/14 01:06:46;;;;;;;25.00;12.60;;;;;;;0.13;81.36;101922.52;105427;1278;61691;-80
2021/12/14 01:09:21;;;;;;;23.80;12.80;;;;;;;0.13;81.64;101923.04;105502;1278;72083;-79
2021/12/14 01:11:50;;;;;;;24.60;13.80;;;;;;;0.10;81.33;101918.77;105533;1278;72320;-80
2021/12/14 01:14:29;;;;;;;24.30;13.10;;;;;;;0.18;82.75;101919.39;105502;1281;69113;-80
2021/12/14 01:17:14;;;;;;;22.90;12.70;;;;;;;0.18;82.45;101919.55;105582;1278;71984;-80
2021/12/14 01:19:51;;;;;;;28.40;14.10;;;;;;;0.18;81.92;101921.10;105491;1278;59074;-80
2021/12/14 01:25:31;;;;;;;24.50;13.00;;;;;;;0.10;81.88;101916.38;105482;1278;73749;-80
2021/12/14 01:28:09;;;;;;;22.80;11.20;;;;;;;0.06;79.64;101918.46;105572;1279;71834;-86
2021/12/14 01:31:19;;;;;;;27.50;14.30;;;;;;;0.02;80.64;101911.15;105639;1278;70084;-84
2021/12/14 01:33:53;;;;;;;25.30;13.90;;;;;;;0.10;81.44;101915.02;105732;1275;73371;-85
2021/12/14 01:36:37;;;;;;;26.70;13.70;;;;;;;0.14;82.81;101914.45;105641;1279;59652;-86
2021/12/14 01:42:06;;;;;;;28.40;14.40;;;;;;;0.14;81.60;101908.27;105577;1278;71745;-84
2021/12/14 01:44:47;;;;;;;25.30;12.20;;;;;;;0.11;81.69;101905.40;105569;1278;71512;-83
2021/12/14 01:47:36;;;;;;;26.40;14.40;;;;;;;0.07;80.74;101909.90;105688;1276;69905;-83
2021/12/14 01:50:45;;;;;;;25.60;12.00;;;;;;;0.04;80.67;101908.73;105552;1278;71377;-82
2021/12/14 01:53:20;;;;;;;22.60;12.60;;;;;;;0.04;81.52;101909.07;105540;1276;61319;-83
2021/12/14 01:55:54;;;;;;;24.00;13.20;;;;;;;0.08;82.04;101905.95;105429;1280;61174;-85
2021/12/14 01:58:33;;;;;;;27.00;13.30;;;;;;;0.13;82.77;101907.95;105687;1278;74514;-86
2021/12/14 02:01:11;;;;;;;20.50;10.90;;;;;;;0.14;82.11;101903.48;105514;1278;71276;-85
2021/12/14 02:04:11;;;;;;;24.20;13.90;;;;;;;0.15;81.33;101902.61;105561;1278;70152;-84
2021/12/14 02:06:40;;;;;;;23.10;12.90;;;;;;;0.12;81.58;101904.20;105163;1282;71807;-85
2021/12/14 02:09:16;;;;;;;26.10;12.90;;;;;;;-0.01;81.45;101905.52;105515;1279;62214;-86
2021/12/14 02:11:51;;;;;;;25.70;14.20;;;;;;;0.02;81.83;101907.89;105562;1279;59653;-82
2021/12/14 02:14:20;;;;;;;23.00;12.80;;;;;;;0.07;82.37;101911.27;105188;1282;74083;-80
2021/12/14 02:16:52;;;;;;;30.70;14.50;;;;;;;0.10;81.98;101907.64;105489;1278;72339;-80
2021/12/14 02:19:21;;;;;;;26.70;13.70;;;;;;;0.15;82.88;101907.41;105345;1278;69140;-78
2021/12/14 02:21:52;;;;;;;20.70;12.60;;;;;;;0.13;81.52;101907.27;105693;1278;72392;-85
2021/12/14 02:24:22;;;;;;;27.60;14.50;;;;;;;0.03;80.73;101908.57;105285;1279;59644;-83
2021/12/14 02:26:58;;;;;;;23.90;12.50;;;;;;;0.02;80.77;101911.31;105294;1282;59703;-82
2021/12/14 02:29:34;;;;;;;26.00;13.20;;;;;;;0.06;81.99;101916.24;105302;1282;74556;-83
2021/12/14 02:32:09;;;;;;;28.50;15.10;;;;;;;0.01;81.78;101918.35;105435;1282;71296;-85
2021/12/14 02:34:53;;;;;;;23.10;13.30;;;;;;;0.02;82.42;101918.51;105500;1282;70646;-88
2021/12/14 02:37:44;;;;;;;29.90;14.80;;;;;;;0.06;81.88;101923.79;105519;1282;73933;-83
2021/12/14 02:40:20;;;;;;;27.50;14.00;;;;;;;0.02;81.10;101925.20;105456;1277;59642;-87
2021/12/14 02:42:51;;;;;;;28.10;14.50;;;;;;;0.01;81.53;101927.77;105347;1280;59715;-88
2021/12/14 02:45:22;;;;;;;23.40;13.50;;;;;;;0.01;81.40;101932.73;105581;1279;73735;-87
2021/12/14 02:47:50;;;;;;;24.40;13.50;;;;;;;-0.01;81.58;101932.24;105374;1278;70807;-90
2021/12/14 02:50:20;;;;;;;25.20;13.00;;;;;;;-0.02;81.70;101933.63;105453;1282;68834;-88
2021/12/14 02:52:49;;;;;;;27.10;13.00;;;;;;;-0.01;82.49;101931.21;105827;1278;73110;-87
2021/12/14 02:55:23;;;;;;;25.90;14.10;;;;;;;0.00;82.17;101931.38;105976;1278;61085;-82
2021/12/14 02:57:55;;;;;;;25.80;14.40;;;;;;;-0.03;82.13;101936.53;105395;1278;61364;-80
2021/12/14 03:00:36;;;;;;;28.30;13.80;;;;;;;-0.03;82.31;101936.02;105453;1281;73430;-82
2021/12/14 03:03:07;;;;;;;23.30;12.80;;;;;;;-0.06;81.55;101942.91;105456;1278;70970;-85
2021/12/14 03:05:39;;;;;;;28.30;14.60;;;;;;;-0.06;81.73;101941.88;105520;1278;70631;-80
2021/12/14 03:08:29;;;;;;;21.80;11.60;;;;;;;-0.09;80.74;101941.55;105402;1279;70499;-81
2021/12/14 03:11:10;;;;;;;20.50;11.80;;;;;;;-0.23;79.30;101939.80;105467;1279;63107;-82
2021/12/14 03:13:51;;;;;;;24.40;12.80;;;;;;;-0.13;81.19;101938.69;105274;1281;59408;-82
2021/12/14 03:16:34;;;;;;;26.00;13.70;;;;;;;-0.06;81.75;101940.34;105389;1278;72593;-82
2021/12/14 03:19:06;;;;;;;26.80;14.00;;;;;;;-0.11;81.44;101937.98;105294;1278;71358;-82
2021/12/14 03:21:39;;;;;;;23.20;12.40;;;;;;;-0.15;81.45;101933.39;105300;1278;68200;-82
2021/12/14 03:24:12;;;;;;;18.60;9.10;;;;;;;-0.11;81.49;101936.95;105380;1278;71997;-83
2021/12/14 03:26:44;;;;;;;19.30;11.80;;;;;;;-0.12;80.73;101941.93;105353;1277;61383;-81
2021/12/14 03:29:23;;;;;;;25.70;12.60;;;;;;;-0.08;80.42;101941.73;105303;1278;60512;-83
2021/12/14 03:31:55;;;;;;;21.10;11.90;;;;;;;-0.13;80.97;101938.52;105489;1278;73310;-82
2021/12/14 03:34:33;;;;;;;24.10;12.20;;;;;;;-0.14;79.97;101939.37;105332;1279;72983;-88
2021/12/14 03:37:16;;;;;;;19.30;10.70;;;;;;;-0.16;80.17;101944.36;105521;1281;69326;-89
2021/12/14 03:39:49;;;;;;;29.70;15.50;;;;;;;-0.13;80.39;101940.40;105523;1281;70777;-90
2021/12/14 03:42:44;;;;;;;18.80;10.20;;;;;;;-0.15;80.92;101944.20;105658;1278;59622;-88
2021/12/14 03:45:19;;;;;;;24.50;11.50;;;;;;;-0.14;80.57;101947.09;105533;1278;59694;-88
2021/12/14 03:47:54;;;;;;;26.90;13.20;;;;;;;-0.19;80.47;101946.27;105603;1281;72684;-86
2021/12/14 03:50:29;;;;;;;19.60;10.30;;;;;;;-0.17;80.95;101951.21;106221;1276;71404;-89
2021/12/14 03:52:59;;;;;;;24.80;12.70;;;;;;;-0.14;79.86;101953.08;105485;1279;69424;-89
2021/12/14 03:55:37;;;;;;;24.00;13.10;;;;;;;-0.13;79.85;101954.60;105387;1278;75105;-88
2021/12/14 03:58:10;;;;;;;25.60;12.40;;;;;;;-0.33;78.80;101957.50;105284;1279;59786;-85
2021/12/14 04:00:50;;;;;;;18.00;9.40;;;;;;;-0.28;78.97;101950.28;105282;1281;59366;-85
2021/12/14 04:03:19;;;;;;;24.00;11.10;;;;;;;-0.22;79.34;101948.70;105277;1278;72568;-86
2021/12/14 04:06:00;;;;;;;23.00;11.40;;;;;;;-0.22;79.27;101954.00;105210;1278;70785;-87
2021/12/14 04:08:29;;;;;;;22.20;11.80;;;;;;;-0.28;79.12;101961.91;105288;1279;70749;-86
2021/12/14 04:10:59;;;;;;;17.30;10.00;;;;;;;-0.21;79.95;101953.82;105393;1281;72223;-85
2021/12/14 04:13:33;;;;;;;19.20;11.20;;;;;;;-0.19;79.08;101959.62;105068;1282;61417;-82
2021/12/14 04:16:04;;;;;;;24.40;12.60;;;;;;;-0.21;78.53;101961.69;105471;1278;60844;-84
2021/12/14 04:18:32;;;;;;;27.50;16.50;;;;;;;-0.26;79.30;101960.55;105378;1279;73502;-89
2021/12/14 04:21:03;;;;;;;23.10;12.80;;;;;;;-0.31;78.79;101961.77;105425;1277;72303;-89
2021/12/14 04:23:38;;;;;;;23.50;11.80;;;;;;;-0.29;79.58;101969.30;105485;1281;71134;-82
2021/12/14 04:26:09;;;;;;;22.20;11.90;;;;;;;-0.28;78.87;101978.88;105472;1278;71554;-84
2021/12/14 04:28:43;;;;;;;19.80;9.50;;;;;;;-0.31;78.35;101969.98;105391;1281;60545;-86
2021/12/14 04:31:15;;;;;;;21.70;11.50;;;;;;;-0.31;78.63;101977.00;105528;1281;60318;-87
2021/12/14 04:33:46;;;;;;;21.00;11.60;;;;;;;-0.24;79.75;101972.84;105471;1278;75023;-81
2021/12/14 04:36:22;;;;;;;25.60;13.50;;;;;;;-0.23;79.32;101974.38;105157;1282;70053;-81
2021/12/14 04:38:58;;;;;;;23.90;11.80;;;;;;;-0.31;79.05;101979.05;105156;1281;70648;-80
2021/12/14 04:53:25;;;;;;;31.80;12.70;;;;;;;-0.25;79.35;102000.25;105365;1281;73209;-82
2021/12/14 04:55:59;;;;;;;21.20;10.20;;;;;;;-0.29;79.38;101996.67;105194;1278;68271;-80
2021/12/14 04:58:35;;;;;;;21.40;10.00;;;;;;;-0.22;79.94;101995.09;105289;1279;72251;-83
2021/12/14 05:01:06;;;;;;;25.70;13.40;;;;;;;-0.22;78.70;102005.19;105354;1281;60896;-85
2021/12/14 05:03:44;;;;;;;30.80;14.30;;;;;;;-0.20;79.90;102001.92;105096;1283;434533;-87
2021/12/14 05:06:22;;;;;;;28.10;13.60;;;;;;;-0.20;79.18;102001.75;105564;1281;71536;-78
2021/12/14 05:09:23;;;;;;;27.10;11.30;;;;;;;-0.17;80.01;102002.94;105406;1281;71242;-79
2021/12/14 05:12:25;;;;;;;22.50;11.70;;;;;;;-0.14;80.93;102002.56;105508;1278;69696;-75
2021/12/14 05:15:10;;;;;;;30.90;14.90;;;;;;;-0.10;80.87;102002.55;105568;1278;73811;-84
2021/12/14 05:17:44;;;;;;;18.60;10.50;;;;;;;-0.15;79.88;102001.55;105569;1275;59618;-79
2021/12/14 05:20:15;;;;;;;28.00;13.40;;;;;;;-0.17;80.23;101996.42;105543;1277;63013;-77
2021/12/14 05:22:45;;;;;;;28.10;14.10;;;;;;;-0.13;79.50;102003.94;105666;1278;73814;-76
2021/12/14 05:25:26;;;;;;;27.20;13.00;;;;;;;-0.15;80.68;101997.77;105630;1279;69737;-77
2021/12/14 05:28:58;;;;;;;24.90;13.20;;;;;;;-0.14;79.71;101999.83;102805;1308;599913;-86
2021/12/14 05:31:27;;;;;;;26.60;15.00;;;;;;;-0.11;80.85;102002.54;105595;1279;59000;-84
2021/12/14 05:33:56;;;;;;;28.90;12.70;;;;;;;-0.19;79.25;102001.75;105720;1277;59903;-79
2021/12/14 05:36:31;;;;;;;27.60;13.80;;;;;;;-0.13;79.83;102002.04;105668;1275;71133;-77
2021/12/14 05:39:16;;;;;;;19.80;10.30;;;;;;;-0.15;80.61;102005.83;105569;1276;69986;-79
2021/12/14 05:44:46;;;;;;;25.20;14.00;;;;;;;-0.24;80.44;102012.23;105671;1272;72673;-76
2021/12/14 05:47:17;;;;;;;28.20;14.50;;;;;;;-0.21;81.32;102013.92;105840;1275;59814;-79
2021/12/14 05:50:07;;;;;;;33.60;15.90;;;;;;;-0.24;80.55;102011.71;105919;1275;62903;-75
2021/12/14 05:52:36;;;;;;;30.90;15.10;;;;;;;-0.23;80.57;102011.88;105898;1274;69801;-74
2021/12/14 05:55:17;;;;;;;28.60;14.80;;;;;;;-0.21;81.98;102011.70;105440;1275;70420;-74
2021/12/14 05:57:46;;;;;;;30.50;15.50;;;;;;;-0.19;81.14;102015.27;107687;1274;69725;-78
2021/12/14 06:00:16;;;;;;;32.70;15.40;;;;;;;-0.20;79.94;102020.94;105503;1276;72335;-77
2021/12/14 06:02:45;;;;;;;30.80;15.00;;;;;;;-0.20;81.10;102019.39;105767;1272;61219;-78
2021/12/14 06:05:19;;;;;;;34.10;16.30;;;;;;;-0.18;81.48;102019.55;105654;1272;60287;-78
2021/12/14 06:07:49;;;;;;;32.40;16.00;;;;;;;-0.20;81.91;102025.55;105592;1275;72562;-78
2021/12/14 06:10:22;;;;;;;29.40;15.80;;;;;;;-0.29;80.42;102026.30;105835;1272;71393;-76
2021/12/14 06:12:51;;;;;;;32.80;15.20;;;;;;;-0.33;80.83;102030.42;105748;1272;68751;-79
2021/12/14 06:15:26;;;;;;;31.30;16.80;;;;;;;-0.30;80.92;102027.67;105668;1272;72224;-75
2021/12/14 06:18:00;;;;;;;34.50;16.70;;;;;;;-0.34;82.03;102027.18;105849;1272;59037;-78
2021/12/14 06:21:31;;;;;;;36.10;18.50;;;;;;;-0.48;80.54;102023.67;105524;1272;59881;-76
2021/12/14 06:24:05;;;;;;;39.00;16.90;;;;;;;-0.55;81.18;102024.23;105897;1272;72206;-78
2021/12/14 06:26:50;;;;;;;38.90;18.50;;;;;;;-0.59;80.68;102024.09;105743;1275;71748;-78
2021/12/14 06:29:27;;;;;;;31.60;15.00;;;;;;;-0.68;80.86;102024.64;105851;1273;69567;-76
2021/12/14 06:31:56;;;;;;;36.70;17.50;;;;;;;-0.70;80.46;102023.27;105698;1272;73869;-78
2021/12/14 06:34:28;;;;;;;40.50;18.30;;;;;;;-0.72;82.14;102026.55;105639;1275;60214;-78
2021/12/14 06:40:10;;;;;;;27.90;12.90;;;;;;;-0.75;82.68;102028.60;105765;1272;73120;-78
2021/12/14 06:42:48;;;;;;;32.80;15.20;;;;;;;-0.75;81.94;102030.15;105770;1275;71840;-77
2021/12/14 06:45:21;;;;;;;29.60;15.10;;;;;;;-0.73;81.52;102035.27;105645;1275;71181;-77
2021/12/14 06:47:54;;;;;;;19.00;10.10;;;;;;;-0.69;81.13;102041.59;105519;1275;74042;-79
2021/12/14 06:50:26;;;;;;;34.60;16.30;;;;;;;-0.63;81.23;102038.80;105743;1272;61584;-79
2021/12/14 06:53:03;;;;;;;25.00;11.30;;;;;;;-0.63;81.01;102036.92;105645;1272;61360;-77
2021/12/14 06:55:56;;;;;;;34.00;15.60;;;;;;;-0.52;81.10;102046.29;106023;1275;71509;-79
2021/12/14 06:59:12;;;;;;;27.60;14.00;;;;;;;-0.46;81.08;102042.66;105318;1276;71635;-79
2021/12/14 07:02:05;;;;;;;34.90;17.60;;;;;;;-0.41;80.83;102042.11;105731;1275;70473;-75
2021/12/14 07:04:36;;;;;;;31.50;15.00;;;;;;;-0.34;81.30;102046.53;105500;1275;72375;-74
2021/12/14 07:07:10;;;;;;;28.70;14.90;;;;;;;-0.24;81.12;102048.01;105529;1272;60551;-77
2021/12/14 07:09:50;;;;;;;33.00;17.30;;;;;;;-0.25;79.57;102045.79;105411;1272;61285;-79
2021/12/14 07:12:27;;;;;;;40.40;17.30;;;;;;;-0.19;79.82;102045.07;105593;1272;73380;-79
2021/12/14 07:15:02;;;;;;;29.00;14.40;;;;;;;-0.15;80.31;102057.71;105601;1272;69970;-78
2021/12/14 07:17:41;;;;;;;32.30;16.70;;;;;;;-0.09;79.70;102055.29;105705;1272;70541;-79
2021/12/14 07:20:13;;;;;;;34.70;16.20;;;;;;;-0.06;79.70;102058.16;105589;1275;72637;-79
2021/12/14 07:22:53;;;;;;;26.20;14.50;;;;;;;0.01;78.92;102057.77;105614;1273;60655;-78
2021/12/14 07:25:23;;;;;;;26.70;12.50;;;;;;;0.03;78.88;102051.59;105570;1272;62279;-77
2021/12/14 07:27:57;;;;;;;30.70;14.30;;;;;;;0.06;78.88;102059.29;105560;1272;72506;-78
2021/12/14 07:30:42;;;;;;;27.90;15.40;;;;;;;0.16;79.77;102060.23;105564;1275;73154;-64
2021/12/14 07:33:15;;;;;;;32.80;16.00;;;;;;;0.25;78.36;102061.54;105563;1275;69073;-66
2021/12/14 07:35:59;;;;;;;31.30;14.40;;;;;;;0.39;79.00;102055.07;107312;1273;73922;-66
2021/12/14 07:38:43;;;;;;;26.80;14.20;;;;;;;0.44;78.33;102055.20;105511;1272;60522;-66
2021/12/14 07:41:27;;;;;;;28.30;14.00;;;;;;;0.44;77.62;102060.52;105686;1272;59578;-67
2021/12/14 07:44:10;;;;;;;36.00;16.20;;;;;;;0.47;77.48;102063.06;105600;1276;72207;-68
2021/12/14 07:46:44;;;;;;;26.00;12.80;;;;;;;0.46;76.96;102056.56;105448;1273;73398;-67
2021/12/14 07:49:21;;;;;;;26.80;13.90;;;;;;;0.38;76.71;102057.64;105478;1272;70072;-83
2021/12/14 07:51:54;;;;;;;28.50;13.40;;;;;;;0.37;76.81;102056.64;105785;1273;75009;-87
2021/12/14 07:54:29;;;;;;;;;;;;;;;0.41;77.76;102056.77;105836;1275;60171;-88
2021/12/14 07:57:07;;;;;;;31.60;15.90;;;;;;;0.44;77.94;102061.89;106005;1272;61633;-87
2021/12/14 07:59:40;;;;;;;31.40;14.30;;;;;;;0.41;77.59;102055.92;106016;1272;73311;-88
2021/12/14 08:02:18;;;;;;;26.40;12.40;;;;;;;0.33;76.75;102054.61;105843;1272;71442;-89
2021/12/14 08:04:53;;;;;;;29.00;14.10;;;;;;;0.37;77.14;102051.84;105948;1272;70578;-89
2021/12/14 08:07:43;;;;;;;33.50;17.20;;;;;;;0.26;76.41;102047.98;105936;1272;72674;-88
2021/12/14 08:10:25;;;;;;;30.00;13.40;;;;;;;0.18;77.09;102049.26;106022;1272;58922;-87
2021/12/14 08:12:58;;;;;;;34.40;15.20;;;;;;;0.05;76.46;102052.61;105967;1272;60818;-89
2021/12/14 08:15:39;;;;;;;27.90;13.80;;;;;;;0.27;76.65;102046.43;105966;1275;70055;-85
2021/12/14 08:18:10;;;;;;;28.00;13.60;;;;;;;0.17;75.26;102051.66;105791;1275;72352;-86
2021/12/14 08:21:11;;;;;;;26.40;13.70;;;;;;;0.26;76.60;102052.61;105962;1272;68593;-85
2021/12/14 08:23:43;;;;;;;31.10;14.60;;;;;;;0.28;76.30;102046.61;106077;1272;73940;-85
2021/12/14 08:26:40;;;;;;;28.20;14.80;;;;;;;0.34;77.44;102048.77;105681;1275;61004;-86
2021/12/14 08:29:22;;;;;;;30.60;16.30;;;;;;;0.31;76.41;102047.27;105658;1272;58940;-87
2021/12/14 08:32:08;;;;;;;22.30;12.20;;;;;;;0.31;76.01;102049.66;105803;1272;73791;-86
2021/12/14 08:34:47;;;;;;;30.70;15.60;;;;;;;0.34;75.93;102050.14;105760;1272;70247;-88
2021/12/14 08:37:58;;;;;;;20.50;10.40;;;;;;;0.37;76.63;102050.63;105897;1273;68692;-86
2021/12/14 08:40:37;;;;;;;30.00;16.60;;;;;;;0.40;75.99;102044.62;105950;1272;73110;-87
2021/12/14 08:43:13;;;;;;;28.30;14.90;;;;;;;0.34;76.06;102041.59;105790;1275;58938;-87
2021/12/14 08:45:57;;;;;;;29.70;13.70;;;;;;;0.29;75.07;102043.86;105922;1272;60272;-87
2021/12/14 08:48:42;;;;;;;25.40;13.80;;;;;;;0.44;75.92;102040.98;105868;1272;72499;-88
2021/12/14 08:51:20;;;;;;;23.10;13.10;;;;;;;0.43;75.54;102034.81;105941;1272;71309;-86
2021/12/14 08:54:11;;;;;;;32.80;15.20;;;;;;;0.46;75.97;102035.98;105887;1272;71030;-85
2021/12/14 08:56:49;;;;;;;25.80;14.10;;;;;;;0.49;75.75;102033.89;105742;1275;73325;-85
2021/12/14 08:59:18;;;;;;;27.70;13.60;;;;;;;0.43;75.47;102035.33;105707;1272;59962;-85
2021/12/14 09:01:48;;;;;;;26.50;13.10;;;;;;;0.49;75.80;102031.84;105704;1275;60285;-86
2021/12/14 09:04:34;;;;;;;27.30;13.70;;;;;;;0.37;76.43;102027.16;105946;1272;72712;-86
2021/12/14 09:07:12;;;;;;;23.50;12.10;;;;;;;0.41;76.78;102018.20;105958;1272;72784;-88
2021/12/14 09:09:42;;;;;;;27.20;13.90;;;;;;;0.39;77.55;102011.20;105854;1272;69138;-87
2021/12/14 09:12:14;;;;;;;27.10;11.70;;;;;;;0.45;76.89;102014.23;106040;1274;73050;-87
2021/12/14 09:14:45;;;;;;;28.50;14.90;;;;;;;0.49;76.80;102008.86;105972;1272;61018;-86
2021/12/14 09:17:16;;;;;;;26.50;14.10;;;;;;;0.57;76.26;102001.77;105934;1272;60383;-88
2021/12/14 09:19:50;;;;;;;27.40;14.10;;;;;;;0.67;76.37;101999.60;105977;1272;70902;-87
2021/12/14 09:22:25;;;;;;;29.30;14.90;;;;;;;0.71;76.34;101996.30;106066;1272;70809;-90
2021/12/14 09:24:55;;;;;;;25.90;13.90;;;;;;;0.80;75.81;102004.08;106057;1273;68459;-85
2021/12/14 09:27:27;;;;;;;24.30;12.90;;;;;;;0.75;74.94;102000.20;106328;1272;71978;-87
2021/12/14 09:29:56;;;;;;;24.70;13.30;;;;;;;0.79;75.77;101995.69;106312;1269;59763;-86
2021/12/14 09:32:28;;;;;;;25.80;13.70;;;;;;;0.87;75.83;101990.30;106810;1276;59045;-86
2021/12/14 09:34:58;;;;;;;25.60;14.30;;;;;;;0.92;76.33;101987.83;106134;1272;69290;-86
2021/12/14 09:37:28;;;;;;;23.30;11.30;;;;;;;0.81;74.51;101981.96;107904;1273;69660;-88
2021/12/14 09:40:05;;;;;;;25.20;13.70;;;;;;;0.84;74.81;101990.33;107920;1272;68745;-85
2021/12/14 09:42:34;;;;;;;28.30;13.30;;;;;;;0.82;75.13;101982.45;106848;1272;72965;-87
2021/12/14 09:45:17;;;;;;;30.00;14.60;;;;;;;0.91;75.55;101974.30;106345;1275;58987;-84
2021/12/14 09:47:46;;;;;;;26.30;13.40;;;;;;;0.97;74.93;101974.22;107916;1276;59150;-88
2021/12/14 09:50:25;;;;;;;27.40;14.10;;;;;;;1.01;75.12;101970.91;105741;1275;70641;-85
2021/12/14 09:52:59;;;;;;;25.00;13.20;;;;;;;0.91;74.37;101976.52;106494;1272;71570;-90
2021/12/14 09:55:32;;;;;;;23.10;12.10;;;;;;;1.06;74.55;101975.64;105923;1272;69049;-89
2021/12/14 09:58:15;;;;;;;25.40;13.50;;;;;;;1.06;74.40;101980.95;105802;1273;72364;-88
2021/12/14 10:01:11;;;;;;;26.20;13.20;;;;;;;1.01;75.00;101978.45;105725;1272;58785;-89
2021/12/14 10:03:41;;;;;;;25.00;13.00;;;;;;;1.09;75.02;101969.08;105809;1272;59720;-89
2021/12/14 10:06:13;;;;;;;26.20;13.90;;;;;;;1.13;75.01;101969.38;105932;1272;72385;-88
2021/12/14 10:08:51;;;;;;;21.10;10.60;;;;;;;1.13;74.13;101958.73;106104;1272;73759;-89
2021/12/14 10:12:02;;;;;;;26.80;14.20;;;;;;;1.27;74.24;101969.71;105862;1273;69698;-88
2021/12/14 10:14:37;;;;;;;30.90;14.60;;;;;;;1.23;73.46;101960.66;105850;1273;72812;-93
2021/12/14 10:17:10;;;;;;;26.90;12.80;;;;;;;1.41;74.31;101964.88;105927;1272;59072;-83
2021/12/14 10:19:39;;;;;;;20.60;11.60;;;;;;;1.41;73.54;101966.41;106536;1265;60417;-91
2021/12/14 10:22:16;;;;;;;17.70;9.90;;;;;;;1.51;72.44;101964.73;105894;1275;71712;-83
2021/12/14 10:24:45;;;;;;;15.80;9.90;;;;;;;1.37;72.77;101963.55;105599;1275;71369;-86
2021/12/14 10:27:17;;;;;;;25.50;13.00;;;;;;;1.31;72.93;101955.23;105703;1275;69654;-87
2021/12/14 10:29:46;;;;;;;26.00;13.80;;;;;;;1.44;73.57;101951.27;105562;1275;71917;-89
2021/12/14 10:32:21;;;;;;;29.50;15.10;;;;;;;1.51;72.96;101938.96;105597;1278;59213;-86
2021/12/14 10:35:00;;;;;;;18.80;10.70;;;;;;;1.52;73.21;101949.77;105628;1278;60572;-86
2021/12/14 10:37:51;;;;;;;23.80;13.20;;;;;;;1.48;73.03;101936.27;105556;1275;71733;-85
2021/12/14 10:43:20;;;;;;;25.60;12.30;;;;;;;1.54;73.28;101939.43;105664;1278;70431;-87
2021/12/14 10:46:06;;;;;;;23.40;13.10;;;;;;;1.64;73.41;101929.67;105550;1278;73899;-86
2021/12/14 10:48:38;;;;;;;25.70;13.40;;;;;;;1.59;72.30;101940.39;105419;1278;59204;-88
2021/12/14 10:51:11;;;;;;;20.40;10.90;;;;;;;1.62;73.30;101932.11;105846;1275;60779;-79
2021/12/14 10:53:45;;;;;;;25.40;13.50;;;;;;;1.75;73.81;101932.24;105410;1279;73990;-86
2021/12/14 10:56:48;;;;;;;26.70;13.60;;;;;;;1.77;73.14;101928.42;105500;1278;71915;-89
2021/12/14 10:59:21;;;;;;;18.60;10.40;;;;;;;1.75;73.02;101925.02;105771;1275;72073;-85
2021/12/14 11:01:50;;;;;;;25.40;13.20;;;;;;;1.82;72.55;101926.63;105664;1278;74355;-87
2021/12/14 11:04:40;;;;;;;23.60;11.90;;;;;;;1.67;72.21;101933.23;105847;1277;59561;-88
2021/12/14 11:07:18;;;;;;;25.50;13.10;;;;;;;1.35;72.54;101925.47;105690;1273;60556;-86
2021/12/14 11:09:52;;;;;;;26.20;12.60;;;;;;;1.26;73.20;101925.60;105951;1275;74643;-86
2021/12/14 11:12:37;;;;;;;26.10;14.00;;;;;;;1.33;74.07;101921.04;106200;1277;70030;-83
2021/12/14 11:15:27;;;;;;;24.50;12.70;;;;;;;1.24;73.75;101921.69;106977;1278;69109;-86
2021/12/14 11:18:13;;;;;;;27.10;12.70;;;;;;;1.42;74.00;101916.79;107321;1275;73990;-85
2021/12/14 11:20:44;;;;;;;27.30;14.20;;;;;;;1.35;73.12;101919.65;106093;1276;61047;-86
2021/12/14 11:23:27;;;;;;;19.00;10.60;;;;;;;1.31;73.37;101915.23;105844;1276;62083;-85
2021/12/14 11:26:01;;;;;;;21.90;11.00;;;;;;;1.41;72.97;101916.80;105762;1277;72460;-88
2021/12/14 11:28:39;;;;;;;22.10;13.30;;;;;;;1.65;73.38;101916.27;105747;1277;70431;-87
2021/12/14 11:31:13;;;;;;;25.30;13.20;;;;;;;1.50;71.28;101920.09;105852;1277;68738;-86
2021/12/14 11:33:59;;;;;;;20.80;11.30;;;;;;;1.91;71.65;101915.13;105885;1276;73951;-89
2021/12/14 11:36:33;;;;;;;21.60;11.70;;;;;;;2.45;71.19;101911.73;105716;1276;63131;-86
2021/12/14 11:39:25;;;;;;;25.00;14.10;;;;;;;2.59;68.83;101907.85;105735;1278;61698;-88
2021/12/14 11:41:58;;;;;;;24.40;13.10;;;;;;;2.78;70.05;101915.71;105902;1274;73291;-86
2021/12/14 11:44:30;;;;;;;30.30;15.20;;;;;;;2.77;69.51;101919.88;105685;1275;72727;-86
2021/12/14 11:50:01;;;;;;;25.70;12.50;;;;;;;2.13;69.02;101927.46;105813;1275;73221;-83
2021/12/14 11:52:54;;;;;;;23.30;13.00;;;;;;;1.98;69.78;101925.50;105862;1277;62750;-85
2021/12/14 11:55:38;;;;;;;22.60;12.50;;;;;;;1.80;71.30;101925.29;105763;1268;59365;-85
2021/12/14 11:58:38;;;;;;;;;;;;;;;1.84;71.27;101922.48;105729;1273;74518;-85
2021/12/14 12:01:46;;;;;;;26.60;14.20;;;;;;;1.65;71.96;101923.13;105757;1278;71533;-88
2021/12/14 12:04:33;;;;;;;28.60;14.60;;;;;;;1.43;71.97;101913.86;105675;1278;70652;-86
2021/12/14 12:09:53;;;;;;;22.70;12.00;;;;;;;1.24;72.51;101916.18;105564;1275;60992;-86
2021/12/14 12:12:27;;;;;;;24.00;11.60;;;;;;;1.30;72.75;101906.33;105506;1275;60123;-84
2021/12/14 12:15:03;;;;;;;22.00;11.60;;;;;;;1.27;72.57;101900.89;105720;1277;71580;-84
2021/12/14 12:17:43;;;;;;;20.50;10.80;;;;;;;1.16;73.08;101901.56;105440;1278;71844;-85
2021/12/14 12:20:25;;;;;;;21.70;11.70;;;;;;;1.13;73.42;101911.54;105376;1278;69745;-84
2021/12/14 12:23:13;;;;;;;24.50;13.10;;;;;;;0.98;73.92;101914.15;105567;1278;73503;-85
2021/12/14 12:25:46;;;;;;;28.60;13.80;;;;;;;1.07;74.35;101909.39;105643;1275;58971;-87
2021/12/14 12:28:22;;;;;;;27.10;14.20;;;;;;;1.02;74.02;101914.80;105640;1278;60488;-83
2021/12/14 12:31:04;;;;;;;22.70;10.90;;;;;;;1.06;74.31;101909.93;105620;1278;72246;-84
2021/12/14 12:33:35;;;;;;;23.70;13.50;;;;;;;1.04;73.82;101907.21;105467;1279;73340;-87